Pagina principale
METAR-TAF:

METAR-TAF

Aeroporti :

Aeroporto di Cefalonia

Cefalonia, Grecia

latitudine: 38-07N, longitudine: 020-30E, altezza: 19 m

Osservazione

Il bollettino è stato emesso 17 minuti fa, alle 15:50 UTC
Vento calmo
Temperature 28°C
Umidità 74%
Pressione 1015 hPa
Visibilità 10 km o più
Poco nuvoloso ad un'altezza di 2000 ft

METAR: LGKF 181550Z 00000KT 9999 FEW020 28/23 Q1015

Ora: 19:07 (16:07 UTC)

Previsione

Il bollettino è stato emesso 2 ore e 7 minuti fa, alle 14:00 UTC
Previsione valida dal 18 alle 15 UTC al 18 alle 24 UTC
Vento 10 kt da sud
Visibilità 10 km o più
Poco nuvoloso ad un'altezza di 2000 ft
Evoluzione graduale
dal 18 alle 18 UTC al 18 alle 20 UTC
Vento 3 kt da direzioni variabili

TAF: LGKF 181400Z 1815/1824 19010KT 9999 FEW020 BECMG 1818/1820 VRB03KT

Osservazioni e previsioni meteorologiche di più di 4000 aeroporti (messaggi METAR e TAF).

Le stazioni disponibili sono rappresentate dai dischi gialli e rossi sulla carta.

Puntare il mouse per vedere il nome della stazione.

Clicca sopra per visualizzare le osservazioni e previsioni meteorologiche.

Per cambiare la mappa : fare clic sui pulsanti verdi con una croce nera per ingrandire, il pulsante verde con un trattino per diminuire, o sulla freccia verde per le mappe adiacenti.


METAR-TAF: